sensor_id;sensor_type;location;lat;lon;timestamp;temperature;humidity
5647;DHT22;2845;48.626;9.362;2023-09-19T00:00:09;17.40;99.40
5647;DHT22;2845;48.626;9.362;2023-09-19T00:02:46;17.40;99.40
5647;DHT22;2845;48.626;9.362;2023-09-19T00:08:02;17.30;99.30
5647;DHT22;2845;48.626;9.362;2023-09-19T00:10:37;17.40;99.50
5647;DHT22;2845;48.626;9.362;2023-09-19T00:13:14;17.30;99.50
5647;DHT22;2845;48.626;9.362;2023-09-19T00:15:48;19.20;99.90
5647;DHT22;2845;48.626;9.362;2023-09-19T00:18:23;20.20;99.90
5647;DHT22;2845;48.626;9.362;2023-09-19T00:21:03;17.30;99.50
5647;DHT22;2845;48.626;9.362;2023-09-19T00:23:39;17.30;99.50
5647;DHT22;2845;48.626;9.362;2023-09-19T00:26:14;17.30;99.50
5647;DHT22;2845;48.626;9.362;2023-09-19T00:31:36;17.40;99.50
5647;DHT22;2845;48.626;9.362;2023-09-19T00:34:10;17.40;99.60
5647;DHT22;2845;48.626;9.362;2023-09-19T00:36:45;17.40;99.40
5647;DHT22;2845;48.626;9.362;2023-09-19T00:39:19;17.70;99.60
5647;DHT22;2845;48.626;9.362;2023-09-19T00:41:54;17.40;99.60
5647;DHT22;2845;48.626;9.362;2023-09-19T00:44:33;17.00;99.60
5647;DHT22;2845;48.626;9.362;2023-09-19T00:47:10;17.40;99.70
5647;DHT22;2845;48.626;9.362;2023-09-19T00:49:48;18.20;99.90
5647;DHT22;2845;48.626;9.362;2023-09-19T00:52:25;17.80;99.90
5647;DHT22;2845;48.626;9.362;2023-09-19T00:55:01;17.90;99.90
5647;DHT22;2845;48.626;9.362;2023-09-19T00:57:36;17.40;99.80
5647;DHT22;2845;48.626;9.362;2023-09-19T01:00:13;17.40;99.80
5647;DHT22;2845;48.626;9.362;2023-09-19T01:02:49;17.40;99.70
5647;DHT22;2845;48.626;9.362;2023-09-19T01:05:23;17.40;99.50
5647;DHT22;2845;48.626;9.362;2023-09-19T01:07:58;17.40;99.40
5647;DHT22;2845;48.626;9.362;2023-09-19T01:10:33;17.40;99.50
5647;DHT22;2845;48.626;9.362;2023-09-19T01:13:13;17.30;99.50
5647;DHT22;2845;48.626;9.362;2023-09-19T01:15:59;17.30;99.50
5647;DHT22;2845;48.626;9.362;2023-09-19T01:18:47;19.80;99.90
5647;DHT22;2845;48.626;9.362;2023-09-19T01:21:33;17.30;99.50
5647;DHT22;2845;48.626;9.362;2023-09-19T01:24:37;17.30;99.60
5647;DHT22;2845;48.626;9.362;2023-09-19T01:28:06;17.30;99.50
5647;DHT22;2845;48.626;9.362;2023-09-19T01:30:44;17.40;99.40
5647;DHT22;2845;48.626;9.362;2023-09-19T01:33:20;17.30;99.40
5647;DHT22;2845;48.626;9.362;2023-09-19T01:35:56;17.40;99.70
5647;DHT22;2845;48.626;9.362;2023-09-19T01:38:31;17.30;99.40
5647;DHT22;2845;48.626;9.362;2023-09-19T01:41:11;17.30;99.40
5647;DHT22;2845;48.626;9.362;2023-09-19T01:43:47;17.30;99.50
5647;DHT22;2845;48.626;9.362;2023-09-19T01:46:30;17.30;99.50
5647;DHT22;2845;48.626;9.362;2023-09-19T01:49:18;17.30;99.60
5647;DHT22;2845;48.626;9.362;2023-09-19T01:52:05;17.30;99.60
5647;DHT22;2845;48.626;9.362;2023-09-19T01:54:50;17.20;99.70
5647;DHT22;2845;48.626;9.362;2023-09-19T01:57:28;17.70;99.90
5647;DHT22;2845;48.626;9.362;2023-09-19T02:00:10;17.30;99.80
5647;DHT22;2845;48.626;9.362;2023-09-19T02:02:47;17.30;99.80
5647;DHT22;2845;48.626;9.362;2023-09-19T02:05:23;17.30;99.80
5647;DHT22;2845;48.626;9.362;2023-09-19T02:07:58;17.30;99.90
5647;DHT22;2845;48.626;9.362;2023-09-19T02:10:33;20.60;99.90
5647;DHT22;2845;48.626;9.362;2023-09-19T02:13:08;17.30;99.90
5647;DHT22;2845;48.626;9.362;2023-09-19T02:15:42;17.30;99.90
5647;DHT22;2845;48.626;9.362;2023-09-19T02:18:20;17.30;99.70
5647;DHT22;2845;48.626;9.362;2023-09-19T02:20:55;17.20;99.70
5647;DHT22;2845;48.626;9.362;2023-09-19T02:23:34;17.20;99.80
5647;DHT22;2845;48.626;9.362;2023-09-19T02:26:08;18.40;99.90
5647;DHT22;2845;48.626;9.362;2023-09-19T02:28:44;20.30;99.90
5647;DHT22;2845;48.626;9.362;2023-09-19T02:31:20;17.40;99.90
5647;DHT22;2845;48.626;9.362;2023-09-19T02:33:55;18.40;99.90
5647;DHT22;2845;48.626;9.362;2023-09-19T02:36:30;20.60;99.90
5647;DHT22;2845;48.626;9.362;2023-09-19T02:39:06;17.20;99.80
5647;DHT22;2845;48.626;9.362;2023-09-19T02:41:41;17.20;99.90
5647;DHT22;2845;48.626;9.362;2023-09-19T02:44:15;17.20;99.90
5647;DHT22;2845;48.626;9.362;2023-09-19T02:46:50;17.10;99.90
5647;DHT22;2845;48.626;9.362;2023-09-19T02:49:26;17.00;99.90
5647;DHT22;2845;48.626;9.362;2023-09-19T02:52:01;17.00;99.90
5647;DHT22;2845;48.626;9.362;2023-09-19T02:54:37;17.00;99.90
5647;DHT22;2845;48.626;9.362;2023-09-19T02:57:11;17.00;99.90
5647;DHT22;2845;48.626;9.362;2023-09-19T02:59:49;16.90;99.90
5647;DHT22;2845;48.626;9.362;2023-09-19T03:02:24;16.80;99.90
5647;DHT22;2845;48.626;9.362;2023-09-19T03:05:02;16.80;99.90
5647;DHT22;2845;48.626;9.362;2023-09-19T03:07:37;16.70;99.90
5647;DHT22;2845;48.626;9.362;2023-09-19T03:10:11;16.70;99.90
5647;DHT22;2845;48.626;9.362;2023-09-19T03:12:47;18.10;99.90
5647;DHT22;2845;48.626;9.362;2023-09-19T03:15:22;16.60;99.90
5647;DHT22;2845;48.626;9.362;2023-09-19T03:17:56;18.00;99.90
5647;DHT22;2845;48.626;9.362;2023-09-19T03:20:35;19.80;99.90
5647;DHT22;2845;48.626;9.362;2023-09-19T03:23:11;16.70;99.90
5647;DHT22;2845;48.626;9.362;2023-09-19T03:25:46;16.60;99.90
5647;DHT22;2845;48.626;9.362;2023-09-19T03:28:21;16.70;99.90
5647;DHT22;2845;48.626;9.362;2023-09-19T03:30:59;16.80;99.90
5647;DHT22;2845;48.626;9.362;2023-09-19T03:33:35;16.80;99.90
5647;DHT22;2845;48.626;9.362;2023-09-19T03:36:12;16.80;99.90
5647;DHT22;2845;48.626;9.362;2023-09-19T03:38:47;16.90;99.90
5647;DHT22;2845;48.626;9.362;2023-09-19T03:41:22;16.90;99.90
5647;DHT22;2845;48.626;9.362;2023-09-19T03:43:56;17.00;99.90
5647;DHT22;2845;48.626;9.362;2023-09-19T03:46:31;18.60;99.90
5647;DHT22;2845;48.626;9.362;2023-09-19T03:49:12;17.90;99.90
5647;DHT22;2845;48.626;9.362;2023-09-19T03:51:48;18.10;99.90
5647;DHT22;2845;48.626;9.362;2023-09-19T03:54:22;19.10;99.90
5647;DHT22;2845;48.626;9.362;2023-09-19T03:56:56;13.00;99.60
5647;DHT22;2845;48.626;9.362;2023-09-19T03:59:31;17.00;99.90
5647;DHT22;2845;48.626;9.362;2023-09-19T04:02:08;17.10;99.90
5647;DHT22;2845;48.626;9.362;2023-09-19T04:07:31;17.00;99.90
5647;DHT22;2845;48.626;9.362;2023-09-19T04:10:06;17.10;99.90
5647;DHT22;2845;48.626;9.362;2023-09-19T04:12:51;17.10;99.90
5647;DHT22;2845;48.626;9.362;2023-09-19T04:15:26;18.30;99.90
5647;DHT22;2845;48.626;9.362;2023-09-19T04:18:00;17.00;99.90
5647;DHT22;2845;48.626;9.362;2023-09-19T04:20:36;17.60;99.90
5647;DHT22;2845;48.626;9.362;2023-09-19T04:23:13;17.00;99.90
5647;DHT22;2845;48.626;9.362;2023-09-19T04:25:47;17.80;99.90
5647;DHT22;2845;48.626;9.362;2023-09-19T04:28:23;17.00;99.90
5647;DHT22;2845;48.626;9.362;2023-09-19T04:31:02;16.90;99.90
5647;DHT22;2845;48.626;9.362;2023-09-19T04:33:36;16.80;99.90
5647;DHT22;2845;48.626;9.362;2023-09-19T04:36:11;18.10;99.90
5647;DHT22;2845;48.626;9.362;2023-09-19T04:39:07;15.40;99.90
5647;DHT22;2845;48.626;9.362;2023-09-19T04:41:44;16.60;99.90
5647;DHT22;2845;48.626;9.362;2023-09-19T04:44:21;16.60;99.90
5647;DHT22;2845;48.626;9.362;2023-09-19T04:46:55;16.50;99.90
5647;DHT22;2845;48.626;9.362;2023-09-19T04:49:30;16.50;99.90
5647;DHT22;2845;48.626;9.362;2023-09-19T04:52:06;16.40;99.90
5647;DHT22;2845;48.626;9.362;2023-09-19T04:54:41;16.40;99.90
5647;DHT22;2845;48.626;9.362;2023-09-19T04:57:16;16.40;99.90
5647;DHT22;2845;48.626;9.362;2023-09-19T04:59:51;17.30;99.90
5647;DHT22;2845;48.626;9.362;2023-09-19T05:02:25;17.00;99.90
5647;DHT22;2845;48.626;9.362;2023-09-19T05:07:37;16.30;99.90
5647;DHT22;2845;48.626;9.362;2023-09-19T05:10:17;16.30;99.90
5647;DHT22;2845;48.626;9.362;2023-09-19T05:15:28;16.50;99.90
5647;DHT22;2845;48.626;9.362;2023-09-19T05:18:03;15.00;99.90
5647;DHT22;2845;48.626;9.362;2023-09-19T05:20:42;16.60;99.90
5647;DHT22;2845;48.626;9.362;2023-09-19T05:23:17;17.50;99.90
5647;DHT22;2845;48.626;9.362;2023-09-19T05:25:56;16.80;99.90
5647;DHT22;2845;48.626;9.362;2023-09-19T05:28:37;19.20;99.90
5647;DHT22;2845;48.626;9.362;2023-09-19T05:31:12;18.00;99.90
5647;DHT22;2845;48.626;9.362;2023-09-19T05:33:47;18.50;99.90
5647;DHT22;2845;48.626;9.362;2023-09-19T05:36:21;18.30;99.90
5647;DHT22;2845;48.626;9.362;2023-09-19T05:38:56;18.80;99.90
5647;DHT22;2845;48.626;9.362;2023-09-19T05:41:32;16.90;99.90
5647;DHT22;2845;48.626;9.362;2023-09-19T05:44:10;19.00;99.90
5647;DHT22;2845;48.626;9.362;2023-09-19T05:46:44;16.90;99.90
5647;DHT22;2845;48.626;9.362;2023-09-19T05:49:19;17.20;99.90
5647;DHT22;2845;48.626;9.362;2023-09-19T05:51:54;17.00;99.90
5647;DHT22;2845;48.626;9.362;2023-09-19T05:54:32;17.00;99.90
5647;DHT22;2845;48.626;9.362;2023-09-19T05:57:09;17.00;99.90
5647;DHT22;2845;48.626;9.362;2023-09-19T05:59:45;18.10;99.90
5647;DHT22;2845;48.626;9.362;2023-09-19T06:02:20;17.90;99.90
5647;DHT22;2845;48.626;9.362;2023-09-19T06:04:55;17.00;99.90
5647;DHT22;2845;48.626;9.362;2023-09-19T06:07:29;17.00;99.90
5647;DHT22;2845;48.626;9.362;2023-09-19T06:10:09;17.00;99.90
5647;DHT22;2845;48.626;9.362;2023-09-19T06:12:45;17.00;99.90
5647;DHT22;2845;48.626;9.362;2023-09-19T06:15:19;17.40;99.90
5647;DHT22;2845;48.626;9.362;2023-09-19T06:17:57;18.20;99.90
5647;DHT22;2845;48.626;9.362;2023-09-19T06:20:32;17.20;99.90
5647;DHT22;2845;48.626;9.362;2023-09-19T06:23:08;19.80;99.90
5647;DHT22;2845;48.626;9.362;2023-09-19T06:25:43;18.60;99.90
5647;DHT22;2845;48.626;9.362;2023-09-19T06:30:57;17.20;99.90
5647;DHT22;2845;48.626;9.362;2023-09-19T06:33:31;17.20;99.90
5647;DHT22;2845;48.626;9.362;2023-09-19T06:36:08;17.20;99.90
5647;DHT22;2845;48.626;9.362;2023-09-19T06:38:43;17.10;99.90
5647;DHT22;2845;48.626;9.362;2023-09-19T06:41:17;17.10;99.90
5647;DHT22;2845;48.626;9.362;2023-09-19T06:43:53;17.30;99.90
5647;DHT22;2845;48.626;9.362;2023-09-19T06:46:28;17.20;99.90
5647;DHT22;2845;48.626;9.362;2023-09-19T06:49:06;18.40;99.90
5647;DHT22;2845;48.626;9.362;2023-09-19T06:51:43;19.30;99.90
5647;DHT22;2845;48.626;9.362;2023-09-19T06:54:21;17.40;99.90
5647;DHT22;2845;48.626;9.362;2023-09-19T06:56:56;17.20;99.90
5647;DHT22;2845;48.626;9.362;2023-09-19T06:59:34;17.20;99.90
5647;DHT22;2845;48.626;9.362;2023-09-19T07:02:09;17.20;99.90
5647;DHT22;2845;48.626;9.362;2023-09-19T07:04:44;20.80;99.90
5647;DHT22;2845;48.626;9.362;2023-09-19T07:07:18;18.50;99.90
5647;DHT22;2845;48.626;9.362;2023-09-19T07:12:31;17.30;99.90
5647;DHT22;2845;48.626;9.362;2023-09-19T07:17:43;17.90;99.90
5647;DHT22;2845;48.626;9.362;2023-09-19T07:20:18;17.50;99.90
5647;DHT22;2845;48.626;9.362;2023-09-19T07:22:52;17.60;99.90
5647;DHT22;2845;48.626;9.362;2023-09-19T07:25:28;17.70;99.90
5647;DHT22;2845;48.626;9.362;2023-09-19T07:28:03;17.80;99.90
5647;DHT22;2845;48.626;9.362;2023-09-19T07:30:39;17.90;99.90
5647;DHT22;2845;48.626;9.362;2023-09-19T07:33:14;17.90;99.90
5647;DHT22;2845;48.626;9.362;2023-09-19T07:35:48;18.40;99.90
5647;DHT22;2845;48.626;9.362;2023-09-19T07:38:22;18.00;99.90
5647;DHT22;2845;48.626;9.362;2023-09-19T07:41:00;18.00;99.90
5647;DHT22;2845;48.626;9.362;2023-09-19T07:43:36;18.20;99.90
5647;DHT22;2845;48.626;9.362;2023-09-19T07:46:15;18.20;99.90
5647;DHT22;2845;48.626;9.362;2023-09-19T07:48:49;18.30;99.90
5647;DHT22;2845;48.626;9.362;2023-09-19T07:51:23;18.30;99.90
5647;DHT22;2845;48.626;9.362;2023-09-19T07:54:00;18.40;99.90
5647;DHT22;2845;48.626;9.362;2023-09-19T07:56:34;18.50;99.90
5647;DHT22;2845;48.626;9.362;2023-09-19T07:59:10;18.70;99.70
5647;DHT22;2845;48.626;9.362;2023-09-19T08:01:45;18.80;99.40
5647;DHT22;2845;48.626;9.362;2023-09-19T08:04:21;19.50;99.50
5647;DHT22;2845;48.626;9.362;2023-09-19T08:06:55;19.00;99.00
5647;DHT22;2845;48.626;9.362;2023-09-19T08:09:33;19.00;99.10
5647;DHT22;2845;48.626;9.362;2023-09-19T08:12:08;19.10;98.80
5647;DHT22;2845;48.626;9.362;2023-09-19T08:14:44;19.10;98.60
5647;DHT22;2845;48.626;9.362;2023-09-19T08:17:21;19.30;98.80
5647;DHT22;2845;48.626;9.362;2023-09-19T08:19:56;19.40;98.60
5647;DHT22;2845;48.626;9.362;2023-09-19T08:22:30;19.60;98.20
5647;DHT22;2845;48.626;9.362;2023-09-19T08:25:05;19.60;98.00
5647;DHT22;2845;48.626;9.362;2023-09-19T08:27:40;19.50;97.90
5647;DHT22;2845;48.626;9.362;2023-09-19T08:30:18;19.40;98.00
5647;DHT22;2845;48.626;9.362;2023-09-19T08:32:59;19.40;98.10
5647;DHT22;2845;48.626;9.362;2023-09-19T08:35:34;21.50;98.80
5647;DHT22;2845;48.626;9.362;2023-09-19T08:38:12;19.40;98.30
5647;DHT22;2845;48.626;9.362;2023-09-19T08:40:47;20.30;98.30
5647;DHT22;2845;48.626;9.362;2023-09-19T08:43:21;19.80;97.90
5647;DHT22;2845;48.626;9.362;2023-09-19T08:46:06;19.80;97.60
5647;DHT22;2845;48.626;9.362;2023-09-19T08:48:52;20.00;97.50
5647;DHT22;2845;48.626;9.362;2023-09-19T08:51:39;20.20;97.10
5647;DHT22;2845;48.626;9.362;2023-09-19T08:54:22;21.90;97.20
5647;DHT22;2845;48.626;9.362;2023-09-19T08:57:02;21.70;97.10
5647;DHT22;2845;48.626;9.362;2023-09-19T08:59:41;20.30;96.50
5647;DHT22;2845;48.626;9.362;2023-09-19T09:02:18;23.80;96.90
5647;DHT22;2845;48.626;9.362;2023-09-19T09:04:55;21.90;96.00
5647;DHT22;2845;48.626;9.362;2023-09-19T09:07:31;20.30;95.60
5647;DHT22;2845;48.626;9.362;2023-09-19T09:10:11;20.20;95.30
5647;DHT22;2845;48.626;9.362;2023-09-19T09:12:45;20.20;95.40
5647;DHT22;2845;48.626;9.362;2023-09-19T09:15:21;20.00;95.50
5647;DHT22;2845;48.626;9.362;2023-09-19T09:17:56;20.90;96.00
5647;DHT22;2845;48.626;9.362;2023-09-19T09:20:32;19.60;95.90
5647;DHT22;2845;48.626;9.362;2023-09-19T09:23:07;19.70;96.00
5647;DHT22;2845;48.626;9.362;2023-09-19T09:25:48;19.80;96.10
5647;DHT22;2845;48.626;9.362;2023-09-19T09:28:28;19.40;96.00
5647;DHT22;2845;48.626;9.362;2023-09-19T09:31:06;19.70;96.00
5647;DHT22;2845;48.626;9.362;2023-09-19T09:33:57;20.60;96.00
5647;DHT22;2845;48.626;9.362;2023-09-19T09:36:37;19.40;95.80
5647;DHT22;2845;48.626;9.362;2023-09-19T09:39:14;19.60;95.80
5647;DHT22;2845;48.626;9.362;2023-09-19T09:41:51;19.80;95.80
5647;DHT22;2845;48.626;9.362;2023-09-19T09:44:26;20.00;95.60
5647;DHT22;2845;48.626;9.362;2023-09-19T09:47:05;21.50;95.40
5647;DHT22;2845;48.626;9.362;2023-09-19T09:50:00;20.70;94.40
5647;DHT22;2845;48.626;9.362;2023-09-19T09:52:51;21.00;94.00
5647;DHT22;2845;48.626;9.362;2023-09-19T09:55:28;21.40;93.80
5647;DHT22;2845;48.626;9.362;2023-09-19T09:58:18;23.90;94.10
5647;DHT22;2845;48.626;9.362;2023-09-19T10:00:59;22.80;93.10
5647;DHT22;2845;48.626;9.362;2023-09-19T10:03:44;21.50;92.30
5647;DHT22;2845;48.626;9.362;2023-09-19T10:06:40;20.60;91.50
5647;DHT22;2845;48.626;9.362;2023-09-19T10:09:22;21.60;91.60
5647;DHT22;2845;48.626;9.362;2023-09-19T10:12:33;25.00;92.20
5647;DHT22;2845;48.626;9.362;2023-09-19T10:15:11;21.90;91.30
5647;DHT22;2845;48.626;9.362;2023-09-19T10:17:48;21.80;91.40
5647;DHT22;2845;48.626;9.362;2023-09-19T10:20:23;21.70;90.60
5647;DHT22;2845;48.626;9.362;2023-09-19T10:23:12;24.00;91.20
5647;DHT22;2845;48.626;9.362;2023-09-19T10:25:50;21.80;91.00
5647;DHT22;2845;48.626;9.362;2023-09-19T10:28:28;21.80;90.50
5647;DHT22;2845;48.626;9.362;2023-09-19T10:31:04;21.90;90.40
5647;DHT22;2845;48.626;9.362;2023-09-19T10:33:43;22.00;90.00
5647;DHT22;2845;48.626;9.362;2023-09-19T10:36:17;22.00;90.20
5647;DHT22;2845;48.626;9.362;2023-09-19T10:38:54;22.10;90.00
5647;DHT22;2845;48.626;9.362;2023-09-19T10:41:32;22.20;89.70
5647;DHT22;2845;48.626;9.362;2023-09-19T10:44:10;25.30;90.50
5647;DHT22;2845;48.626;9.362;2023-09-19T10:46:44;22.60;88.10
5647;DHT22;2845;48.626;9.362;2023-09-19T10:49:19;22.60;87.70
5647;DHT22;2845;48.626;9.362;2023-09-19T10:51:57;24.20;89.50
5647;DHT22;2845;48.626;9.362;2023-09-19T10:54:35;22.80;88.50
5647;DHT22;2845;48.626;9.362;2023-09-19T10:57:19;22.90;88.40
5647;DHT22;2845;48.626;9.362;2023-09-19T11:00:03;22.90;88.50
5647;DHT22;2845;48.626;9.362;2023-09-19T11:03:16;22.90;88.10
5647;DHT22;2845;48.626;9.362;2023-09-19T11:06:01;22.60;86.60
5647;DHT22;2845;48.626;9.362;2023-09-19T11:08:56;22.20;87.50
5647;DHT22;2845;48.626;9.362;2023-09-19T11:11:40;21.90;87.40
5647;DHT22;2845;48.626;9.362;2023-09-19T11:14:38;21.70;88.00
5647;DHT22;2845;48.626;9.362;2023-09-19T11:17:39;21.60;88.20
5647;DHT22;2845;48.626;9.362;2023-09-19T11:20:24;21.50;88.10
5647;DHT22;2845;48.626;9.362;2023-09-19T11:23:19;21.40;88.80
5647;DHT22;2845;48.626;9.362;2023-09-19T11:25:59;21.30;88.80
5647;DHT22;2845;48.626;9.362;2023-09-19T11:28:35;21.20;88.40
5647;DHT22;2845;48.626;9.362;2023-09-19T11:31:42;21.80;88.90
5647;DHT22;2845;48.626;9.362;2023-09-19T11:34:38;21.00;88.20
5647;DHT22;2845;48.626;9.362;2023-09-19T11:40:47;20.80;89.00
5647;DHT22;2845;48.626;9.362;2023-09-19T11:44:32;20.80;89.30
5647;DHT22;2845;48.626;9.362;2023-09-19T11:47:12;21.00;89.60
5647;DHT22;2845;48.626;9.362;2023-09-19T11:49:48;21.20;89.10
5647;DHT22;2845;48.626;9.362;2023-09-19T11:52:24;22.60;88.20
5647;DHT22;2845;48.626;9.362;2023-09-19T11:55:00;24.50;88.60
5647;DHT22;2845;48.626;9.362;2023-09-19T11:57:35;22.30;86.90
5647;DHT22;2845;48.626;9.362;2023-09-19T12:00:17;22.10;86.60
5647;DHT22;2845;48.626;9.362;2023-09-19T12:02:55;22.30;86.00
5647;DHT22;2845;48.626;9.362;2023-09-19T12:05:39;22.90;86.60
5647;DHT22;2845;48.626;9.362;2023-09-19T12:08:15;22.70;86.90
5647;DHT22;2845;48.626;9.362;2023-09-19T12:10:50;22.30;86.30
5647;DHT22;2845;48.626;9.362;2023-09-19T12:13:25;25.00;87.90
5647;DHT22;2845;48.626;9.362;2023-09-19T12:16:00;22.50;85.60
5647;DHT22;2845;48.626;9.362;2023-09-19T12:18:36;22.50;85.20
5647;DHT22;2845;48.626;9.362;2023-09-19T12:21:25;25.60;86.30
5647;DHT22;2845;48.626;9.362;2023-09-19T12:24:07;24.00;85.80
5647;DHT22;2845;48.626;9.362;2023-09-19T12:26:47;22.50;85.00
5647;DHT22;2845;48.626;9.362;2023-09-19T12:29:26;22.50;85.80
5647;DHT22;2845;48.626;9.362;2023-09-19T12:32:00;22.30;84.50
5647;DHT22;2845;48.626;9.362;2023-09-19T12:34:39;22.30;85.00
5647;DHT22;2845;48.626;9.362;2023-09-19T12:37:16;22.70;85.60
5647;DHT22;2845;48.626;9.362;2023-09-19T12:40:04;25.30;86.60
5647;DHT22;2845;48.626;9.362;2023-09-19T12:42:53;22.10;85.60
5647;DHT22;2845;48.626;9.362;2023-09-19T12:45:29;22.00;85.20
5647;DHT22;2845;48.626;9.362;2023-09-19T12:48:21;22.00;85.20
5647;DHT22;2845;48.626;9.362;2023-09-19T12:51:04;22.00;84.70
5647;DHT22;2845;48.626;9.362;2023-09-19T12:53:42;22.00;84.40
5647;DHT22;2845;48.626;9.362;2023-09-19T12:56:18;22.30;85.50
5647;DHT22;2845;48.626;9.362;2023-09-19T12:58:56;22.10;85.00
5647;DHT22;2845;48.626;9.362;2023-09-19T13:01:34;22.00;84.50
5647;DHT22;2845;48.626;9.362;2023-09-19T13:04:15;21.90;85.50
5647;DHT22;2845;48.626;9.362;2023-09-19T13:06:55;21.90;85.00
5647;DHT22;2845;48.626;9.362;2023-09-19T13:09:34;21.80;84.40
5647;DHT22;2845;48.626;9.362;2023-09-19T13:12:36;21.90;84.70
5647;DHT22;2845;48.626;9.362;2023-09-19T13:15:15;21.90;84.70
5647;DHT22;2845;48.626;9.362;2023-09-19T13:17:53;22.10;84.50
5647;DHT22;2845;48.626;9.362;2023-09-19T13:20:27;22.20;83.50
5647;DHT22;2845;48.626;9.362;2023-09-19T13:23:03;22.50;83.90
5647;DHT22;2845;48.626;9.362;2023-09-19T13:25:43;22.40;83.40
5647;DHT22;2845;48.626;9.362;2023-09-19T13:28:17;24.70;84.40
5647;DHT22;2845;48.626;9.362;2023-09-19T13:30:52;22.70;82.10
5647;DHT22;2845;48.626;9.362;2023-09-19T13:33:27;25.60;83.20
5647;DHT22;2845;48.626;9.362;2023-09-19T13:36:05;22.70;82.10
5647;DHT22;2845;48.626;9.362;2023-09-19T13:41:24;22.60;81.60
5647;DHT22;2845;48.626;9.362;2023-09-19T13:43:58;22.70;83.30
5647;DHT22;2845;48.626;9.362;2023-09-19T13:46:33;24.10;83.90
5647;DHT22;2845;48.626;9.362;2023-09-19T13:49:10;22.80;82.60
5647;DHT22;2845;48.626;9.362;2023-09-19T13:51:44;20.50;82.30
5647;DHT22;2845;48.626;9.362;2023-09-19T13:54:23;22.60;82.90
5647;DHT22;2845;48.626;9.362;2023-09-19T13:56:57;22.50;83.20
5647;DHT22;2845;48.626;9.362;2023-09-19T13:59:31;25.40;84.70
5647;DHT22;2845;48.626;9.362;2023-09-19T14:02:06;22.50;83.60
5647;DHT22;2845;48.626;9.362;2023-09-19T14:04:40;22.50;82.60
5647;DHT22;2845;48.626;9.362;2023-09-19T14:07:15;22.50;82.40
5647;DHT22;2845;48.626;9.362;2023-09-19T14:09:51;22.70;83.40
5647;DHT22;2845;48.626;9.362;2023-09-19T14:12:26;25.90;84.60
5647;DHT22;2845;48.626;9.362;2023-09-19T14:15:00;25.60;83.20
5647;DHT22;2845;48.626;9.362;2023-09-19T14:17:36;23.00;82.10
5647;DHT22;2845;48.626;9.362;2023-09-19T14:20:12;24.60;82.10
5647;DHT22;2845;48.626;9.362;2023-09-19T14:22:48;24.50;82.20
5647;DHT22;2845;48.626;9.362;2023-09-19T14:25:24;23.50;80.90
5647;DHT22;2845;48.626;9.362;2023-09-19T14:28:00;23.60;80.60
5647;DHT22;2845;48.626;9.362;2023-09-19T14:30:34;23.60;80.20
5647;DHT22;2845;48.626;9.362;2023-09-19T14:33:10;25.40;81.30
5647;DHT22;2845;48.626;9.362;2023-09-19T14:35:45;25.10;80.50
5647;DHT22;2845;48.626;9.362;2023-09-19T14:38:19;23.90;78.90
5647;DHT22;2845;48.626;9.362;2023-09-19T14:41:00;25.90;80.00
5647;DHT22;2845;48.626;9.362;2023-09-19T14:43:35;24.40;79.00
5647;DHT22;2845;48.626;9.362;2023-09-19T14:46:10;24.10;78.60
5647;DHT22;2845;48.626;9.362;2023-09-19T14:48:45;26.30;79.00
5647;DHT22;2845;48.626;9.362;2023-09-19T14:51:21;24.20;77.50
5647;DHT22;2845;48.626;9.362;2023-09-19T14:53:55;24.20;77.80
5647;DHT22;2845;48.626;9.362;2023-09-19T14:56:32;24.30;77.60
5647;DHT22;2845;48.626;9.362;2023-09-19T14:59:06;24.40;77.30
5647;DHT22;2845;48.626;9.362;2023-09-19T15:01:42;24.30;78.00
5647;DHT22;2845;48.626;9.362;2023-09-19T15:04:17;24.50;78.00
5647;DHT22;2845;48.626;9.362;2023-09-19T15:06:52;24.50;77.60
5647;DHT22;2845;48.626;9.362;2023-09-19T15:09:27;24.40;77.00
5647;DHT22;2845;48.626;9.362;2023-09-19T15:12:06;25.60;77.30
5647;DHT22;2845;48.626;9.362;2023-09-19T15:14:41;24.40;76.90
5647;DHT22;2845;48.626;9.362;2023-09-19T15:17:15;24.40;76.90
5647;DHT22;2845;48.626;9.362;2023-09-19T15:19:51;24.30;76.90
5647;DHT22;2845;48.626;9.362;2023-09-19T15:22:26;25.90;77.30
5647;DHT22;2845;48.626;9.362;2023-09-19T15:25:00;24.20;76.30
5647;DHT22;2845;48.626;9.362;2023-09-19T15:27:38;24.20;76.40
5647;DHT22;2845;48.626;9.362;2023-09-19T15:30:14;26.20;77.50
5647;DHT22;2845;48.626;9.362;2023-09-19T15:32:49;24.20;76.40
5647;DHT22;2845;48.626;9.362;2023-09-19T15:35:24;24.20;75.80
5647;DHT22;2845;48.626;9.362;2023-09-19T15:37:59;24.30;75.70
5647;DHT22;2845;48.626;9.362;2023-09-19T15:40:34;25.00;75.30
5647;DHT22;2845;48.626;9.362;2023-09-19T15:43:10;26.50;76.90
5647;DHT22;2845;48.626;9.362;2023-09-19T15:45:45;26.50;76.40
5647;DHT22;2845;48.626;9.362;2023-09-19T15:48:21;24.30;76.00
5647;DHT22;2845;48.626;9.362;2023-09-19T15:50:55;24.20;75.90
5647;DHT22;2845;48.626;9.362;2023-09-19T15:53:34;26.70;77.30
5647;DHT22;2845;48.626;9.362;2023-09-19T15:56:17;23.90;75.40
5647;DHT22;2845;48.626;9.362;2023-09-19T15:58:55;25.70;77.60
5647;DHT22;2845;48.626;9.362;2023-09-19T16:01:30;23.50;76.20
5647;DHT22;2845;48.626;9.362;2023-09-19T16:04:04;23.70;77.50
5647;DHT22;2845;48.626;9.362;2023-09-19T16:06:47;23.10;77.00
5647;DHT22;2845;48.626;9.362;2023-09-19T16:09:21;22.90;77.30
5647;DHT22;2845;48.626;9.362;2023-09-19T16:11:56;22.70;77.40
5647;DHT22;2845;48.626;9.362;2023-09-19T16:17:08;22.50;77.80
5647;DHT22;2845;48.626;9.362;2023-09-19T16:19:43;22.40;78.60
5647;DHT22;2845;48.626;9.362;2023-09-19T16:22:20;24.60;80.00
5647;DHT22;2845;48.626;9.362;2023-09-19T16:24:55;22.30;79.30
5647;DHT22;2845;48.626;9.362;2023-09-19T16:27:29;22.20;79.90
5647;DHT22;2845;48.626;9.362;2023-09-19T16:30:06;22.60;80.00
5647;DHT22;2845;48.626;9.362;2023-09-19T16:32:44;22.00;79.30
5647;DHT22;2845;48.626;9.362;2023-09-19T16:35:20;22.00;79.70
5647;DHT22;2845;48.626;9.362;2023-09-19T16:37:55;21.90;80.00
5647;DHT22;2845;48.626;9.362;2023-09-19T16:40:29;21.90;80.10
5647;DHT22;2845;48.626;9.362;2023-09-19T16:43:03;22.30;80.90
5647;DHT22;2845;48.626;9.362;2023-09-19T16:45:39;21.70;80.70
5647;DHT22;2845;48.626;9.362;2023-09-19T16:48:16;21.70;80.80
5647;DHT22;2845;48.626;9.362;2023-09-19T16:50:51;21.60;81.00
5647;DHT22;2845;48.626;9.362;2023-09-19T16:53:26;21.50;81.30
5647;DHT22;2845;48.626;9.362;2023-09-19T16:56:01;22.10;81.90
5647;DHT22;2845;48.626;9.362;2023-09-19T16:58:36;21.40;81.80
5647;DHT22;2845;48.626;9.362;2023-09-19T17:03:51;21.10;82.10
5647;DHT22;2845;48.626;9.362;2023-09-19T17:06:26;21.10;82.60
5647;DHT22;2845;48.626;9.362;2023-09-19T17:09:01;22.80;84.20
5647;DHT22;2845;48.626;9.362;2023-09-19T17:11:37;21.50;82.90
5647;DHT22;2845;48.626;9.362;2023-09-19T17:14:12;20.80;82.80
5647;DHT22;2845;48.626;9.362;2023-09-19T17:16:48;20.80;83.50
5647;DHT22;2845;48.626;9.362;2023-09-19T17:19:23;20.60;83.70
5647;DHT22;2845;48.626;9.362;2023-09-19T17:21:57;20.60;83.90
5647;DHT22;2845;48.626;9.362;2023-09-19T17:24:32;20.50;83.70
5647;DHT22;2845;48.626;9.362;2023-09-19T17:27:07;20.10;84.40
5647;DHT22;2845;48.626;9.362;2023-09-19T17:29:42;20.40;84.90
5647;DHT22;2845;48.626;9.362;2023-09-19T17:32:17;21.30;85.60
5647;DHT22;2845;48.626;9.362;2023-09-19T17:34:53;20.10;85.20
5647;DHT22;2845;48.626;9.362;2023-09-19T17:37:27;19.90;85.20
5647;DHT22;2845;48.626;9.362;2023-09-19T17:40:02;19.80;85.60
5647;DHT22;2845;48.626;9.362;2023-09-19T17:42:37;19.70;86.00